I69

Clermont County Airport

Batavia, Ohio, USA
METAR KI69 242317Z AUTO 17008KT 10SM RA BKN010 OVC025 20/19 A3006 RMK AO2 T01970190
Observed Flight Rules
Sep-24 @ 23:17 UTC (4 minutes ago) Marginal Visual Flight Rules
Wind Visibility Clouds Conditions
170° at 8 knots 10 miles
  • Broken at 1,000' AGL
  • Overcast at 2,500' AGL
  • Rain
Temperatures Readings
Current 20°C / 68°F
Dewpoint 19°C / 66°F
Humidity 94%
Altimeter 30.06" Hg
Pressure 1018 hPa
Elevation 255
METAR KI69 242317Z AUTO 17008KT 10SM RA BKN010 OVC025 20/19 A3006 RMK AO2 T01970190
Observed Flight Rules
Sep-24 @ 23:17 UTC
(4 minutes ago)
MVFR
Wind Visibility
170° at 8 knots 10 miles
Clouds
  • Broken at 1,000' AGL
  • Overcast at 2,500' AGL
Conditions
  • Rain
Temperature Dewpoint
20°C / 68°F 19°C / 66°F
Humidity Altimeter Pressure
94% 30.06" Hg 1018 hPa